sensor_id;sensor_type;location;lat;lon;timestamp;temperature;humidity
4596;DHT22;2310;49.978;8.742;2024-02-14T00:03:40;8.70;99.90
4596;DHT22;2310;49.978;8.742;2024-02-14T00:07:42;8.80;99.90
4596;DHT22;2310;49.978;8.742;2024-02-14T00:11:43;8.80;99.90
4596;DHT22;2310;49.978;8.742;2024-02-14T00:15:45;8.80;99.90
4596;DHT22;2310;49.978;8.742;2024-02-14T00:19:47;8.90;99.90
4596;DHT22;2310;49.978;8.742;2024-02-14T00:23:48;9.00;99.90
4596;DHT22;2310;49.978;8.742;2024-02-14T00:27:49;8.90;99.90
4596;DHT22;2310;49.978;8.742;2024-02-14T00:31:51;9.00;99.90
4596;DHT22;2310;49.978;8.742;2024-02-14T00:35:52;9.00;99.90
4596;DHT22;2310;49.978;8.742;2024-02-14T00:39:54;9.00;99.90
4596;DHT22;2310;49.978;8.742;2024-02-14T00:43:57;9.10;99.90
4596;DHT22;2310;49.978;8.742;2024-02-14T00:47:58;9.10;99.90
4596;DHT22;2310;49.978;8.742;2024-02-14T00:51:59;9.00;99.90
4596;DHT22;2310;49.978;8.742;2024-02-14T00:56:01;9.10;99.90
4596;DHT22;2310;49.978;8.742;2024-02-14T01:00:05;9.00;99.90
4596;DHT22;2310;49.978;8.742;2024-02-14T01:04:07;8.90;99.90
4596;DHT22;2310;49.978;8.742;2024-02-14T01:08:09;8.90;99.90
4596;DHT22;2310;49.978;8.742;2024-02-14T01:12:10;8.90;99.90
4596;DHT22;2310;49.978;8.742;2024-02-14T01:16:11;9.00;99.90
4596;DHT22;2310;49.978;8.742;2024-02-14T01:20:13;9.00;99.90
4596;DHT22;2310;49.978;8.742;2024-02-14T01:24:15;9.20;99.90
4596;DHT22;2310;49.978;8.742;2024-02-14T01:28:17;9.20;99.90
4596;DHT22;2310;49.978;8.742;2024-02-14T01:32:18;9.20;99.90
4596;DHT22;2310;49.978;8.742;2024-02-14T01:36:20;9.20;99.90
4596;DHT22;2310;49.978;8.742;2024-02-14T01:40:21;9.30;99.90
4596;DHT22;2310;49.978;8.742;2024-02-14T01:44:22;9.40;99.90
4596;DHT22;2310;49.978;8.742;2024-02-14T01:48:24;9.40;99.90
4596;DHT22;2310;49.978;8.742;2024-02-14T01:52:25;9.50;99.90
4596;DHT22;2310;49.978;8.742;2024-02-14T01:56:27;9.50;99.90
4596;DHT22;2310;49.978;8.742;2024-02-14T02:00:32;9.40;99.90
4596;DHT22;2310;49.978;8.742;2024-02-14T02:04:36;9.60;99.90
4596;DHT22;2310;49.978;8.742;2024-02-14T02:08:37;9.70;99.90
4596;DHT22;2310;49.978;8.742;2024-02-14T02:12:39;9.60;99.90
4596;DHT22;2310;49.978;8.742;2024-02-14T02:16:40;9.80;99.90
4596;DHT22;2310;49.978;8.742;2024-02-14T02:20:42;9.90;99.90
4596;DHT22;2310;49.978;8.742;2024-02-14T02:24:44;9.80;99.90
4596;DHT22;2310;49.978;8.742;2024-02-14T02:28:46;9.70;99.90
4596;DHT22;2310;49.978;8.742;2024-02-14T02:32:48;9.60;99.90
4596;DHT22;2310;49.978;8.742;2024-02-14T02:36:51;9.60;99.90
4596;DHT22;2310;49.978;8.742;2024-02-14T02:40:53;9.60;99.90
4596;DHT22;2310;49.978;8.742;2024-02-14T02:44:54;9.60;99.90
4596;DHT22;2310;49.978;8.742;2024-02-14T02:48:55;9.70;99.90
4596;DHT22;2310;49.978;8.742;2024-02-14T02:52:58;9.70;99.90
4596;DHT22;2310;49.978;8.742;2024-02-14T02:57:01;9.70;99.90
4596;DHT22;2310;49.978;8.742;2024-02-14T03:01:09;9.70;99.90
4596;DHT22;2310;49.978;8.742;2024-02-14T03:05:10;9.80;99.90
4596;DHT22;2310;49.978;8.742;2024-02-14T03:09:14;9.70;99.90
4596;DHT22;2310;49.978;8.742;2024-02-14T03:13:15;9.70;99.90
4596;DHT22;2310;49.978;8.742;2024-02-14T03:17:18;9.70;99.90
4596;DHT22;2310;49.978;8.742;2024-02-14T03:21:19;9.60;99.90
4596;DHT22;2310;49.978;8.742;2024-02-14T03:25:21;9.80;99.90
4596;DHT22;2310;49.978;8.742;2024-02-14T03:29:24;9.70;99.90
4596;DHT22;2310;49.978;8.742;2024-02-14T03:33:26;9.80;99.90
4596;DHT22;2310;49.978;8.742;2024-02-14T03:37:27;9.80;99.90
4596;DHT22;2310;49.978;8.742;2024-02-14T03:41:29;9.80;99.90
4596;DHT22;2310;49.978;8.742;2024-02-14T03:45:30;9.80;99.90
4596;DHT22;2310;49.978;8.742;2024-02-14T03:49:31;9.80;99.90
4596;DHT22;2310;49.978;8.742;2024-02-14T03:53:33;9.80;99.90
4596;DHT22;2310;49.978;8.742;2024-02-14T03:57:34;9.80;99.90
4596;DHT22;2310;49.978;8.742;2024-02-14T04:01:38;9.90;99.90
4596;DHT22;2310;49.978;8.742;2024-02-14T04:05:39;10.00;99.90
4596;DHT22;2310;49.978;8.742;2024-02-14T04:09:41;10.10;99.90
4596;DHT22;2310;49.978;8.742;2024-02-14T04:13:42;10.10;99.90
4596;DHT22;2310;49.978;8.742;2024-02-14T04:17:44;10.20;99.90
4596;DHT22;2310;49.978;8.742;2024-02-14T04:21:46;10.10;99.90
4596;DHT22;2310;49.978;8.742;2024-02-14T04:25:47;10.20;99.90
4596;DHT22;2310;49.978;8.742;2024-02-14T04:29:49;10.20;99.90
4596;DHT22;2310;49.978;8.742;2024-02-14T04:33:50;10.20;99.90
4596;DHT22;2310;49.978;8.742;2024-02-14T04:37:53;10.20;99.90
4596;DHT22;2310;49.978;8.742;2024-02-14T04:41:54;10.30;99.90
4596;DHT22;2310;49.978;8.742;2024-02-14T04:45:59;10.30;99.90
4596;DHT22;2310;49.978;8.742;2024-02-14T04:50:00;10.20;99.90
4596;DHT22;2310;49.978;8.742;2024-02-14T04:54:04;10.20;99.90
4596;DHT22;2310;49.978;8.742;2024-02-14T04:58:06;10.00;99.90
4596;DHT22;2310;49.978;8.742;2024-02-14T05:02:08;10.10;99.90
4596;DHT22;2310;49.978;8.742;2024-02-14T05:06:09;9.90;99.90
4596;DHT22;2310;49.978;8.742;2024-02-14T05:10:11;9.80;99.90
4596;DHT22;2310;49.978;8.742;2024-02-14T05:14:12;9.90;99.90
4596;DHT22;2310;49.978;8.742;2024-02-14T05:18:15;9.90;99.90
4596;DHT22;2310;49.978;8.742;2024-02-14T05:22:17;9.90;99.90
4596;DHT22;2310;49.978;8.742;2024-02-14T05:26:19;9.90;99.90
4596;DHT22;2310;49.978;8.742;2024-02-14T05:30:20;10.00;99.90
4596;DHT22;2310;49.978;8.742;2024-02-14T05:34:22;9.90;99.90
4596;DHT22;2310;49.978;8.742;2024-02-14T05:38:24;10.00;99.90
4596;DHT22;2310;49.978;8.742;2024-02-14T05:42:25;10.00;99.90
4596;DHT22;2310;49.978;8.742;2024-02-14T05:46:26;9.90;99.90
4596;DHT22;2310;49.978;8.742;2024-02-14T05:50:28;9.70;99.90
4596;DHT22;2310;49.978;8.742;2024-02-14T05:54:30;9.80;99.90
4596;DHT22;2310;49.978;8.742;2024-02-14T05:58:32;9.80;99.90
4596;DHT22;2310;49.978;8.742;2024-02-14T06:02:33;9.70;99.90
4596;DHT22;2310;49.978;8.742;2024-02-14T06:06:34;9.90;99.90
4596;DHT22;2310;49.978;8.742;2024-02-14T06:10:36;9.80;99.90
4596;DHT22;2310;49.978;8.742;2024-02-14T06:14:39;9.80;99.90
4596;DHT22;2310;49.978;8.742;2024-02-14T06:18:41;9.70;99.90
4596;DHT22;2310;49.978;8.742;2024-02-14T06:22:43;9.80;99.90
4596;DHT22;2310;49.978;8.742;2024-02-14T06:26:46;9.90;99.90
4596;DHT22;2310;49.978;8.742;2024-02-14T06:30:48;9.70;99.90
4596;DHT22;2310;49.978;8.742;2024-02-14T06:34:49;9.70;99.90
4596;DHT22;2310;49.978;8.742;2024-02-14T06:38:51;9.70;99.90
4596;DHT22;2310;49.978;8.742;2024-02-14T06:42:52;9.70;99.90
4596;DHT22;2310;49.978;8.742;2024-02-14T06:46:55;9.40;99.90
4596;DHT22;2310;49.978;8.742;2024-02-14T06:50:57;9.50;99.90
4596;DHT22;2310;49.978;8.742;2024-02-14T06:54:58;9.40;99.90
4596;DHT22;2310;49.978;8.742;2024-02-14T06:58:59;9.40;99.90
4596;DHT22;2310;49.978;8.742;2024-02-14T07:03:01;9.40;99.90
4596;DHT22;2310;49.978;8.742;2024-02-14T07:07:02;9.30;99.90
4596;DHT22;2310;49.978;8.742;2024-02-14T07:11:04;9.30;99.90
4596;DHT22;2310;49.978;8.742;2024-02-14T07:15:05;9.60;99.90
4596;DHT22;2310;49.978;8.742;2024-02-14T07:19:07;9.60;99.90
4596;DHT22;2310;49.978;8.742;2024-02-14T07:23:09;9.60;99.90
4596;DHT22;2310;49.978;8.742;2024-02-14T07:27:11;9.70;99.90
4596;DHT22;2310;49.978;8.742;2024-02-14T07:31:13;9.60;99.90
4596;DHT22;2310;49.978;8.742;2024-02-14T07:35:14;9.80;99.90
4596;DHT22;2310;49.978;8.742;2024-02-14T07:39:16;9.80;99.90
4596;DHT22;2310;49.978;8.742;2024-02-14T07:43:17;9.90;99.90
4596;DHT22;2310;49.978;8.742;2024-02-14T07:47:19;10.20;99.90
4596;DHT22;2310;49.978;8.742;2024-02-14T07:51:21;10.20;99.90
4596;DHT22;2310;49.978;8.742;2024-02-14T07:55:22;10.30;99.90
4596;DHT22;2310;49.978;8.742;2024-02-14T07:59:25;10.30;99.90
4596;DHT22;2310;49.978;8.742;2024-02-14T08:03:28;10.40;99.90
4596;DHT22;2310;49.978;8.742;2024-02-14T08:07:29;10.30;99.90
4596;DHT22;2310;49.978;8.742;2024-02-14T08:11:31;10.40;99.90
4596;DHT22;2310;49.978;8.742;2024-02-14T08:15:33;10.40;99.90
4596;DHT22;2310;49.978;8.742;2024-02-14T08:19:35;10.60;99.90
4596;DHT22;2310;49.978;8.742;2024-02-14T08:23:37;10.80;99.90
4596;DHT22;2310;49.978;8.742;2024-02-14T08:27:40;10.90;99.90
4596;DHT22;2310;49.978;8.742;2024-02-14T08:31:41;10.90;99.90
4596;DHT22;2310;49.978;8.742;2024-02-14T08:35:43;11.10;99.90
4596;DHT22;2310;49.978;8.742;2024-02-14T08:39:45;11.10;99.90
4596;DHT22;2310;49.978;8.742;2024-02-14T08:43:46;10.90;99.90
4596;DHT22;2310;49.978;8.742;2024-02-14T08:47:49;11.00;99.90
4596;DHT22;2310;49.978;8.742;2024-02-14T08:51:51;11.10;99.90
4596;DHT22;2310;49.978;8.742;2024-02-14T08:55:52;11.10;99.90
4596;DHT22;2310;49.978;8.742;2024-02-14T08:59:54;11.20;99.90
4596;DHT22;2310;49.978;8.742;2024-02-14T09:03:56;11.10;99.90
4596;DHT22;2310;49.978;8.742;2024-02-14T09:07:58;11.10;99.90
4596;DHT22;2310;49.978;8.742;2024-02-14T09:12:01;11.30;99.90
4596;DHT22;2310;49.978;8.742;2024-02-14T09:16:04;11.20;99.90
4596;DHT22;2310;49.978;8.742;2024-02-14T09:20:08;11.10;99.90
4596;DHT22;2310;49.978;8.742;2024-02-14T09:24:10;11.10;99.90
4596;DHT22;2310;49.978;8.742;2024-02-14T09:28:13;11.10;99.90
4596;DHT22;2310;49.978;8.742;2024-02-14T09:32:15;11.10;99.90
4596;DHT22;2310;49.978;8.742;2024-02-14T09:36:16;11.20;99.90
4596;DHT22;2310;49.978;8.742;2024-02-14T09:40:18;11.40;99.90
4596;DHT22;2310;49.978;8.742;2024-02-14T09:44:20;11.40;99.90
4596;DHT22;2310;49.978;8.742;2024-02-14T09:48:27;11.40;99.90
4596;DHT22;2310;49.978;8.742;2024-02-14T09:52:32;11.50;99.90
4596;DHT22;2310;49.978;8.742;2024-02-14T09:56:34;11.40;99.90
4596;DHT22;2310;49.978;8.742;2024-02-14T10:00:35;11.80;99.90
4596;DHT22;2310;49.978;8.742;2024-02-14T10:04:37;11.90;99.90
4596;DHT22;2310;49.978;8.742;2024-02-14T10:08:40;12.00;99.90
4596;DHT22;2310;49.978;8.742;2024-02-14T10:12:43;11.90;99.90
4596;DHT22;2310;49.978;8.742;2024-02-14T10:16:45;11.90;99.90
4596;DHT22;2310;49.978;8.742;2024-02-14T10:20:56;12.10;99.90
4596;DHT22;2310;49.978;8.742;2024-02-14T10:24:58;12.10;99.90
4596;DHT22;2310;49.978;8.742;2024-02-14T10:29:00;12.00;99.90
4596;DHT22;2310;49.978;8.742;2024-02-14T10:33:03;12.20;99.90
4596;DHT22;2310;49.978;8.742;2024-02-14T10:37:07;12.30;99.90
4596;DHT22;2310;49.978;8.742;2024-02-14T10:41:10;12.00;99.90
4596;DHT22;2310;49.978;8.742;2024-02-14T10:45:13;12.10;99.90
4596;DHT22;2310;49.978;8.742;2024-02-14T10:49:15;12.10;99.90
4596;DHT22;2310;49.978;8.742;2024-02-14T10:53:18;12.10;99.90
4596;DHT22;2310;49.978;8.742;2024-02-14T10:57:21;12.20;99.90
4596;DHT22;2310;49.978;8.742;2024-02-14T11:01:27;12.00;99.90
4596;DHT22;2310;49.978;8.742;2024-02-14T11:05:44;12.30;99.90
4596;DHT22;2310;49.978;8.742;2024-02-14T11:09:46;12.20;99.90
4596;DHT22;2310;49.978;8.742;2024-02-14T11:13:53;12.30;99.90
4596;DHT22;2310;49.978;8.742;2024-02-14T11:18:03;12.20;99.90
4596;DHT22;2310;49.978;8.742;2024-02-14T11:22:17;12.40;99.90
4596;DHT22;2310;49.978;8.742;2024-02-14T11:26:16;12.30;99.90
4596;DHT22;2310;49.978;8.742;2024-02-14T11:30:29;12.40;99.90
4596;DHT22;2310;49.978;8.742;2024-02-14T11:34:32;12.40;99.90
4596;DHT22;2310;49.978;8.742;2024-02-14T11:38:36;12.40;99.90
4596;DHT22;2310;49.978;8.742;2024-02-14T11:42:37;12.20;99.90
4596;DHT22;2310;49.978;8.742;2024-02-14T11:46:39;12.00;99.90
4596;DHT22;2310;49.978;8.742;2024-02-14T11:50:42;12.20;99.90
4596;DHT22;2310;49.978;8.742;2024-02-14T11:54:47;12.50;99.90
4596;DHT22;2310;49.978;8.742;2024-02-14T11:58:52;12.60;99.90
4596;DHT22;2310;49.978;8.742;2024-02-14T12:02:53;12.90;99.90
4596;DHT22;2310;49.978;8.742;2024-02-14T12:06:55;13.10;99.90
4596;DHT22;2310;49.978;8.742;2024-02-14T12:10:57;13.60;99.90
4596;DHT22;2310;49.978;8.742;2024-02-14T12:15:01;13.80;99.90
4596;DHT22;2310;49.978;8.742;2024-02-14T12:19:08;13.60;99.90
4596;DHT22;2310;49.978;8.742;2024-02-14T12:23:15;14.20;99.90
4596;DHT22;2310;49.978;8.742;2024-02-14T12:27:19;14.70;99.90
4596;DHT22;2310;49.978;8.742;2024-02-14T12:31:22;14.30;99.90
4596;DHT22;2310;49.978;8.742;2024-02-14T12:35:24;13.70;99.90
4596;DHT22;2310;49.978;8.742;2024-02-14T12:39:27;13.70;99.90
4596;DHT22;2310;49.978;8.742;2024-02-14T12:43:29;13.70;99.90
4596;DHT22;2310;49.978;8.742;2024-02-14T12:47:31;13.60;99.90
4596;DHT22;2310;49.978;8.742;2024-02-14T12:51:35;13.50;99.90
4596;DHT22;2310;49.978;8.742;2024-02-14T12:55:37;13.30;99.90
4596;DHT22;2310;49.978;8.742;2024-02-14T12:59:39;13.20;99.90
4596;DHT22;2310;49.978;8.742;2024-02-14T13:03:41;13.20;99.90
4596;DHT22;2310;49.978;8.742;2024-02-14T13:07:43;13.20;99.90
4596;DHT22;2310;49.978;8.742;2024-02-14T13:11:44;13.40;99.90
4596;DHT22;2310;49.978;8.742;2024-02-14T13:15:46;13.30;99.90
4596;DHT22;2310;49.978;8.742;2024-02-14T13:19:48;13.50;99.90
4596;DHT22;2310;49.978;8.742;2024-02-14T13:23:50;13.40;99.90
4596;DHT22;2310;49.978;8.742;2024-02-14T13:27:52;13.50;99.90
4596;DHT22;2310;49.978;8.742;2024-02-14T13:31:55;13.50;99.90
4596;DHT22;2310;49.978;8.742;2024-02-14T13:35:57;13.40;99.90
4596;DHT22;2310;49.978;8.742;2024-02-14T13:39:59;13.00;99.90
4596;DHT22;2310;49.978;8.742;2024-02-14T13:44:00;12.90;99.90
4596;DHT22;2310;49.978;8.742;2024-02-14T13:48:03;12.90;99.90
4596;DHT22;2310;49.978;8.742;2024-02-14T13:52:09;12.70;99.90
4596;DHT22;2310;49.978;8.742;2024-02-14T13:56:11;12.90;99.90
4596;DHT22;2310;49.978;8.742;2024-02-14T14:00:13;12.90;99.90
4596;DHT22;2310;49.978;8.742;2024-02-14T14:04:15;12.70;99.90
4596;DHT22;2310;49.978;8.742;2024-02-14T14:08:16;12.70;99.90
4596;DHT22;2310;49.978;8.742;2024-02-14T14:12:18;12.80;99.90
4596;DHT22;2310;49.978;8.742;2024-02-14T14:16:19;12.90;99.90
4596;DHT22;2310;49.978;8.742;2024-02-14T14:20:22;13.10;99.90
4596;DHT22;2310;49.978;8.742;2024-02-14T14:24:24;13.30;99.90
4596;DHT22;2310;49.978;8.742;2024-02-14T14:28:26;13.00;99.90
4596;DHT22;2310;49.978;8.742;2024-02-14T14:32:28;12.90;99.90
4596;DHT22;2310;49.978;8.742;2024-02-14T14:36:30;13.00;99.90
4596;DHT22;2310;49.978;8.742;2024-02-14T14:40:32;13.00;99.90
4596;DHT22;2310;49.978;8.742;2024-02-14T14:44:33;13.20;99.90
4596;DHT22;2310;49.978;8.742;2024-02-14T14:48:35;13.10;99.90
4596;DHT22;2310;49.978;8.742;2024-02-14T14:52:37;13.10;99.90
4596;DHT22;2310;49.978;8.742;2024-02-14T14:56:39;12.90;99.90
4596;DHT22;2310;49.978;8.742;2024-02-14T15:00:40;13.00;99.90
4596;DHT22;2310;49.978;8.742;2024-02-14T15:04:43;12.80;99.90
4596;DHT22;2310;49.978;8.742;2024-02-14T15:08:47;13.00;99.90
4596;DHT22;2310;49.978;8.742;2024-02-14T15:12:49;12.60;99.90
4596;DHT22;2310;49.978;8.742;2024-02-14T15:16:50;12.50;99.90
4596;DHT22;2310;49.978;8.742;2024-02-14T15:20:52;12.50;99.90
4596;DHT22;2310;49.978;8.742;2024-02-14T15:24:53;12.20;99.90
4596;DHT22;2310;49.978;8.742;2024-02-14T15:28:54;12.30;99.90
4596;DHT22;2310;49.978;8.742;2024-02-14T15:33:01;12.00;99.90
4596;DHT22;2310;49.978;8.742;2024-02-14T15:37:22;12.20;99.90
4596;DHT22;2310;49.978;8.742;2024-02-14T15:41:23;12.20;99.90
4596;DHT22;2310;49.978;8.742;2024-02-14T15:45:24;12.10;99.90
4596;DHT22;2310;49.978;8.742;2024-02-14T15:49:26;12.40;99.90
4596;DHT22;2310;49.978;8.742;2024-02-14T15:53:29;12.40;99.90
4596;DHT22;2310;49.978;8.742;2024-02-14T15:57:32;12.30;99.90
4596;DHT22;2310;49.978;8.742;2024-02-14T16:01:34;12.40;99.90
4596;DHT22;2310;49.978;8.742;2024-02-14T16:05:35;12.20;99.90
4596;DHT22;2310;49.978;8.742;2024-02-14T16:09:37;12.30;99.90
4596;DHT22;2310;49.978;8.742;2024-02-14T16:13:38;12.30;99.90
4596;DHT22;2310;49.978;8.742;2024-02-14T16:17:40;12.20;99.90
4596;DHT22;2310;49.978;8.742;2024-02-14T16:21:41;12.40;99.90
4596;DHT22;2310;49.978;8.742;2024-02-14T16:25:43;12.50;99.90
4596;DHT22;2310;49.978;8.742;2024-02-14T16:29:45;12.60;99.90
4596;DHT22;2310;49.978;8.742;2024-02-14T16:33:47;12.40;99.90
4596;DHT22;2310;49.978;8.742;2024-02-14T16:37:48;12.40;99.90
4596;DHT22;2310;49.978;8.742;2024-02-14T16:41:50;12.50;99.90
4596;DHT22;2310;49.978;8.742;2024-02-14T16:45:51;12.40;99.90
4596;DHT22;2310;49.978;8.742;2024-02-14T16:49:53;12.50;99.90
4596;DHT22;2310;49.978;8.742;2024-02-14T16:53:54;12.40;99.90
4596;DHT22;2310;49.978;8.742;2024-02-14T16:57:56;12.20;99.90
4596;DHT22;2310;49.978;8.742;2024-02-14T17:01:59;12.20;99.90
4596;DHT22;2310;49.978;8.742;2024-02-14T17:06:01;12.20;99.90
4596;DHT22;2310;49.978;8.742;2024-02-14T17:10:05;12.30;99.90
4596;DHT22;2310;49.978;8.742;2024-02-14T17:14:06;12.10;99.90
4596;DHT22;2310;49.978;8.742;2024-02-14T17:18:10;12.60;99.90
4596;DHT22;2310;49.978;8.742;2024-02-14T17:22:11;12.60;99.90
4596;DHT22;2310;49.978;8.742;2024-02-14T17:26:15;12.40;99.90
4596;DHT22;2310;49.978;8.742;2024-02-14T17:30:17;12.40;99.90
4596;DHT22;2310;49.978;8.742;2024-02-14T17:34:20;12.40;99.90
4596;DHT22;2310;49.978;8.742;2024-02-14T17:38:21;12.40;99.90
4596;DHT22;2310;49.978;8.742;2024-02-14T17:42:23;12.30;99.90
4596;DHT22;2310;49.978;8.742;2024-02-14T17:46:25;12.50;99.90
4596;DHT22;2310;49.978;8.742;2024-02-14T17:50:26;12.50;99.90
4596;DHT22;2310;49.978;8.742;2024-02-14T17:54:28;12.40;99.90
4596;DHT22;2310;49.978;8.742;2024-02-14T17:58:29;12.40;99.90
4596;DHT22;2310;49.978;8.742;2024-02-14T18:02:32;12.50;99.90
4596;DHT22;2310;49.978;8.742;2024-02-14T18:06:35;12.60;99.90
4596;DHT22;2310;49.978;8.742;2024-02-14T18:10:37;12.60;99.90
4596;DHT22;2310;49.978;8.742;2024-02-14T18:14:38;12.50;99.90
4596;DHT22;2310;49.978;8.742;2024-02-14T18:18:39;12.50;99.90
4596;DHT22;2310;49.978;8.742;2024-02-14T18:22:43;12.60;99.90
4596;DHT22;2310;49.978;8.742;2024-02-14T18:26:45;12.60;99.90
4596;DHT22;2310;49.978;8.742;2024-02-14T18:30:46;12.50;99.90
4596;DHT22;2310;49.978;8.742;2024-02-14T18:34:48;12.60;99.90
4596;DHT22;2310;49.978;8.742;2024-02-14T18:38:53;12.50;99.90
4596;DHT22;2310;49.978;8.742;2024-02-14T18:42:56;12.70;99.90
4596;DHT22;2310;49.978;8.742;2024-02-14T18:46:57;12.80;99.90
4596;DHT22;2310;49.978;8.742;2024-02-14T18:50:58;12.80;99.90
4596;DHT22;2310;49.978;8.742;2024-02-14T18:55:00;12.80;99.90
4596;DHT22;2310;49.978;8.742;2024-02-14T18:59:02;12.90;99.90
4596;DHT22;2310;49.978;8.742;2024-02-14T19:03:03;12.80;99.90
4596;DHT22;2310;49.978;8.742;2024-02-14T19:07:05;12.80;99.90
4596;DHT22;2310;49.978;8.742;2024-02-14T19:11:06;12.80;99.90
4596;DHT22;2310;49.978;8.742;2024-02-14T19:15:08;12.80;99.90
4596;DHT22;2310;49.978;8.742;2024-02-14T19:19:10;12.80;99.90
4596;DHT22;2310;49.978;8.742;2024-02-14T19:23:14;12.80;99.90
4596;DHT22;2310;49.978;8.742;2024-02-14T19:27:15;12.90;99.90
4596;DHT22;2310;49.978;8.742;2024-02-14T19:31:17;12.70;99.90
4596;DHT22;2310;49.978;8.742;2024-02-14T19:35:18;12.70;99.90
4596;DHT22;2310;49.978;8.742;2024-02-14T19:39:20;12.80;99.90
4596;DHT22;2310;49.978;8.742;2024-02-14T19:43:21;12.90;99.90
4596;DHT22;2310;49.978;8.742;2024-02-14T19:47:26;13.00;99.90
4596;DHT22;2310;49.978;8.742;2024-02-14T19:51:29;12.90;99.90
4596;DHT22;2310;49.978;8.742;2024-02-14T19:55:31;12.80;99.90
4596;DHT22;2310;49.978;8.742;2024-02-14T19:59:33;12.70;99.90
4596;DHT22;2310;49.978;8.742;2024-02-14T20:03:35;12.80;99.90
4596;DHT22;2310;49.978;8.742;2024-02-14T20:07:38;12.80;99.90
4596;DHT22;2310;49.978;8.742;2024-02-14T20:11:39;12.80;99.90
4596;DHT22;2310;49.978;8.742;2024-02-14T20:15:40;12.90;99.90
4596;DHT22;2310;49.978;8.742;2024-02-14T20:19:42;12.90;99.90
4596;DHT22;2310;49.978;8.742;2024-02-14T20:23:43;12.80;99.90
4596;DHT22;2310;49.978;8.742;2024-02-14T20:27:45;12.80;99.90
4596;DHT22;2310;49.978;8.742;2024-02-14T20:31:46;12.80;99.90
4596;DHT22;2310;49.978;8.742;2024-02-14T20:35:48;12.90;99.90
4596;DHT22;2310;49.978;8.742;2024-02-14T20:39:50;12.90;99.90
4596;DHT22;2310;49.978;8.742;2024-02-14T20:43:52;12.90;99.90
4596;DHT22;2310;49.978;8.742;2024-02-14T20:47:53;12.80;99.90
4596;DHT22;2310;49.978;8.742;2024-02-14T20:51:55;12.80;99.90
4596;DHT22;2310;49.978;8.742;2024-02-14T20:55:56;12.70;99.90
4596;DHT22;2310;49.978;8.742;2024-02-14T20:59:58;12.80;99.90
4596;DHT22;2310;49.978;8.742;2024-02-14T21:03:59;12.80;99.90
4596;DHT22;2310;49.978;8.742;2024-02-14T21:08:01;12.70;99.90
4596;DHT22;2310;49.978;8.742;2024-02-14T21:12:03;12.80;99.90
4596;DHT22;2310;49.978;8.742;2024-02-14T21:16:05;12.80;99.90
4596;DHT22;2310;49.978;8.742;2024-02-14T21:20:07;12.90;99.90
4596;DHT22;2310;49.978;8.742;2024-02-14T21:24:09;12.70;99.90
4596;DHT22;2310;49.978;8.742;2024-02-14T21:28:11;12.70;99.90
4596;DHT22;2310;49.978;8.742;2024-02-14T21:32:12;12.70;99.90
4596;DHT22;2310;49.978;8.742;2024-02-14T21:36:15;12.80;99.90
4596;DHT22;2310;49.978;8.742;2024-02-14T21:40:17;12.70;99.90
4596;DHT22;2310;49.978;8.742;2024-02-14T21:44:18;12.80;99.90
4596;DHT22;2310;49.978;8.742;2024-02-14T21:48:22;12.80;99.90
4596;DHT22;2310;49.978;8.742;2024-02-14T21:52:24;12.80;99.90
4596;DHT22;2310;49.978;8.742;2024-02-14T21:56:26;12.60;99.90
4596;DHT22;2310;49.978;8.742;2024-02-14T22:00:28;12.80;99.90
4596;DHT22;2310;49.978;8.742;2024-02-14T22:04:30;12.70;99.90
4596;DHT22;2310;49.978;8.742;2024-02-14T22:08:31;12.70;99.90
4596;DHT22;2310;49.978;8.742;2024-02-14T22:12:34;12.80;99.90
4596;DHT22;2310;49.978;8.742;2024-02-14T22:16:35;12.90;99.90
4596;DHT22;2310;49.978;8.742;2024-02-14T22:20:38;12.80;99.90
4596;DHT22;2310;49.978;8.742;2024-02-14T22:24:40;12.70;99.90
4596;DHT22;2310;49.978;8.742;2024-02-14T22:28:42;12.70;99.90
4596;DHT22;2310;49.978;8.742;2024-02-14T22:32:43;12.70;99.90
4596;DHT22;2310;49.978;8.742;2024-02-14T22:36:45;12.80;99.90
4596;DHT22;2310;49.978;8.742;2024-02-14T22:40:46;12.90;99.90
4596;DHT22;2310;49.978;8.742;2024-02-14T22:44:48;12.90;99.90
4596;DHT22;2310;49.978;8.742;2024-02-14T22:48:49;12.90;99.90
4596;DHT22;2310;49.978;8.742;2024-02-14T22:52:51;12.90;99.90
4596;DHT22;2310;49.978;8.742;2024-02-14T22:56:53;12.80;99.90
4596;DHT22;2310;49.978;8.742;2024-02-14T23:00:55;12.80;99.90
4596;DHT22;2310;49.978;8.742;2024-02-14T23:04:57;12.70;99.90
4596;DHT22;2310;49.978;8.742;2024-02-14T23:08:58;12.80;99.90
4596;DHT22;2310;49.978;8.742;2024-02-14T23:13:00;12.80;99.90
4596;DHT22;2310;49.978;8.742;2024-02-14T23:17:01;12.80;99.90
4596;DHT22;2310;49.978;8.742;2024-02-14T23:21:04;12.80;99.90
4596;DHT22;2310;49.978;8.742;2024-02-14T23:25:08;12.80;99.90
4596;DHT22;2310;49.978;8.742;2024-02-14T23:29:12;12.80;99.90
4596;DHT22;2310;49.978;8.742;2024-02-14T23:33:14;12.90;99.90
4596;DHT22;2310;49.978;8.742;2024-02-14T23:37:17;12.90;99.90
4596;DHT22;2310;49.978;8.742;2024-02-14T23:41:19;12.90;99.90
4596;DHT22;2310;49.978;8.742;2024-02-14T23:45:21;12.80;99.90
4596;DHT22;2310;49.978;8.742;2024-02-14T23:49:23;12.90;99.90
4596;DHT22;2310;49.978;8.742;2024-02-14T23:53:24;12.60;99.90
4596;DHT22;2310;49.978;8.742;2024-02-14T23:57:26;12.70;99.90
